sensor_id;sensor_type;location;lat;lon;timestamp;pressure;altitude;pressure_sealevel;temperature;humidity
56400;BME280;42298;53.638;9.876;2023-04-19T00:02:21;102995.16;;;8.83;61.25
56400;BME280;42298;53.638;9.876;2023-04-19T00:04:46;102985.97;;;8.77;61.35
56400;BME280;42298;53.638;9.876;2023-04-19T00:07:12;102993.47;;;8.82;61.99
56400;BME280;42298;53.638;9.876;2023-04-19T00:09:38;102969.38;;;8.72;61.96
56400;BME280;42298;53.638;9.876;2023-04-19T00:12:03;102987.25;;;8.86;61.85
56400;BME280;42298;53.638;9.876;2023-04-19T00:14:29;102984.84;;;8.90;61.80
56400;BME280;42298;53.638;9.876;2023-04-19T00:16:54;102965.19;;;8.70;61.54
56400;BME280;42298;53.638;9.876;2023-04-19T00:19:20;102977.72;;;8.77;61.63
56400;BME280;42298;53.638;9.876;2023-04-19T00:21:47;102956.88;;;8.65;61.89
56400;BME280;42298;53.638;9.876;2023-04-19T00:24:12;102953.16;;;8.59;61.70
56400;BME280;42298;53.638;9.876;2023-04-19T00:26:37;102975.38;;;8.69;61.80
56400;BME280;42298;53.638;9.876;2023-04-19T00:29:03;102956.06;;;8.53;61.79
56400;BME280;42298;53.638;9.876;2023-04-19T00:31:28;102950.69;;;8.46;62.22
56400;BME280;42298;53.638;9.876;2023-04-19T00:33:53;102959.53;;;8.48;61.97
56400;BME280;42298;53.638;9.876;2023-04-19T00:36:19;102949.75;;;8.41;62.08
56400;BME280;42298;53.638;9.876;2023-04-19T00:38:44;102946.66;;;8.37;62.06
56400;BME280;42298;53.638;9.876;2023-04-19T00:41:09;102955.50;;;8.39;62.21
56400;BME280;42298;53.638;9.876;2023-04-19T00:43:35;102925.53;;;8.26;61.85
56400;BME280;42298;53.638;9.876;2023-04-19T00:46:00;102926.63;;;8.25;61.61
56400;BME280;42298;53.638;9.876;2023-04-19T00:48:26;102973.84;;;8.50;61.34
56400;BME280;42298;53.638;9.876;2023-04-19T00:50:51;102952.38;;;8.36;61.66
56400;BME280;42298;53.638;9.876;2023-04-19T00:53:17;102936.88;;;8.30;61.46
56400;BME280;42298;53.638;9.876;2023-04-19T00:55:42;102956.91;;;8.42;61.27
56400;BME280;42298;53.638;9.876;2023-04-19T00:58:08;102963.25;;;8.42;61.67
56400;BME280;42298;53.638;9.876;2023-04-19T01:00:34;102963.72;;;8.39;61.46
56400;BME280;42298;53.638;9.876;2023-04-19T01:03:00;102945.84;;;8.25;60.98
56400;BME280;42298;53.638;9.876;2023-04-19T01:05:25;102972.28;;;8.43;61.19
56400;BME280;42298;53.638;9.876;2023-04-19T01:07:51;102965.16;;;8.42;60.71
56400;BME280;42298;53.638;9.876;2023-04-19T01:10:17;102967.28;;;8.40;60.71
56400;BME280;42298;53.638;9.876;2023-04-19T01:12:42;102941.19;;;8.26;61.23
56400;BME280;42298;53.638;9.876;2023-04-19T01:15:08;102937.72;;;8.19;60.87
56400;BME280;42298;53.638;9.876;2023-04-19T01:17:33;102966.34;;;8.34;60.57
56400;BME280;42298;53.638;9.876;2023-04-19T01:20:03;102975.19;;;8.36;60.73
56400;BME280;42298;53.638;9.876;2023-04-19T01:22:30;102965.41;;;8.29;60.99
56400;BME280;42298;53.638;9.876;2023-04-19T01:24:56;102920.19;;;8.08;60.32
56400;BME280;42298;53.638;9.876;2023-04-19T01:27:21;102964.69;;;8.33;60.09
56400;BME280;42298;53.638;9.876;2023-04-19T01:29:48;102947.47;;;8.15;60.77
56400;BME280;42298;53.638;9.876;2023-04-19T01:32:13;102943.06;;;8.14;60.05
56400;BME280;42298;53.638;9.876;2023-04-19T01:34:38;102953.56;;;8.17;60.55
56400;BME280;42298;53.638;9.876;2023-04-19T01:37:04;102961.09;;;8.21;60.58
56400;BME280;42298;53.638;9.876;2023-04-19T01:39:29;102966.59;;;8.21;60.16
56400;BME280;42298;53.638;9.876;2023-04-19T01:41:55;102959.44;;;8.20;60.46
56400;BME280;42298;53.638;9.876;2023-04-19T01:44:20;102962.66;;;8.29;60.09
56400;BME280;42298;53.638;9.876;2023-04-19T01:46:46;102960.41;;;8.26;60.02
56400;BME280;42298;53.638;9.876;2023-04-19T01:49:12;102960.66;;;8.24;60.21
56400;BME280;42298;53.638;9.876;2023-04-19T01:51:37;102964.31;;;8.30;60.17
56400;BME280;42298;53.638;9.876;2023-04-19T01:54:03;102934.84;;;8.14;60.33
56400;BME280;42298;53.638;9.876;2023-04-19T01:56:29;102941.28;;;8.19;59.85
56400;BME280;42298;53.638;9.876;2023-04-19T01:58:55;102952.16;;;8.26;60.02
56400;BME280;42298;53.638;9.876;2023-04-19T02:01:20;102947.50;;;8.26;60.28
56400;BME280;42298;53.638;9.876;2023-04-19T02:03:46;102955.72;;;8.26;60.42
56400;BME280;42298;53.638;9.876;2023-04-19T02:06:12;102949.19;;;8.27;60.19
56400;BME280;42298;53.638;9.876;2023-04-19T02:08:38;102950.84;;;8.28;59.79
56400;BME280;42298;53.638;9.876;2023-04-19T02:11:11;102944.03;;;8.31;60.17
56400;BME280;42298;53.638;9.876;2023-04-19T02:13:38;102940.94;;;8.16;60.14
56400;BME280;42298;53.638;9.876;2023-04-19T02:16:04;102939.97;;;8.10;60.47
56400;BME280;42298;53.638;9.876;2023-04-19T02:18:30;102945.94;;;8.07;60.30
56400;BME280;42298;53.638;9.876;2023-04-19T02:21:00;102944.03;;;8.08;60.32
56400;BME280;42298;53.638;9.876;2023-04-19T02:23:25;102945.47;;;7.99;60.57
56400;BME280;42298;53.638;9.876;2023-04-19T02:25:52;102922.78;;;7.80;60.64
56400;BME280;42298;53.638;9.876;2023-04-19T02:28:17;102937.25;;;7.87;61.02
56400;BME280;42298;53.638;9.876;2023-04-19T02:30:42;102955.97;;;7.90;nan
56400;BME280;42298;53.638;9.876;2023-04-19T02:33:08;102931.75;;;7.75;61.39
56400;BME280;42298;53.638;9.876;2023-04-19T02:35:33;102929.38;;;7.79;61.38
56400;BME280;42298;53.638;9.876;2023-04-19T02:38:00;102926.50;;;7.74;61.24
56400;BME280;42298;53.638;9.876;2023-04-19T02:40:25;102947.00;;;7.83;61.01
56400;BME280;42298;53.638;9.876;2023-04-19T02:42:51;102923.16;;;7.72;61.11
56400;BME280;42298;53.638;9.876;2023-04-19T02:45:16;102947.38;;;7.87;60.93
56400;BME280;42298;53.638;9.876;2023-04-19T02:47:41;102942.38;;;7.83;61.09
56400;BME280;42298;53.638;9.876;2023-04-19T02:50:07;102943.56;;;7.88;60.71
56400;BME280;42298;53.638;9.876;2023-04-19T02:52:32;102926.50;;;7.74;60.96
56400;BME280;42298;53.638;9.876;2023-04-19T02:54:58;102939.16;;;7.75;60.11
56400;BME280;42298;53.638;9.876;2023-04-19T02:57:23;102923.28;;;7.65;61.17
56400;BME280;42298;53.638;9.876;2023-04-19T02:59:48;102934.63;;;7.69;61.03
56400;BME280;42298;53.638;9.876;2023-04-19T03:02:14;102937.94;;;7.71;61.50
56400;BME280;42298;53.638;9.876;2023-04-19T03:04:39;102946.31;;;7.76;61.17
56400;BME280;42298;53.638;9.876;2023-04-19T03:07:05;102927.91;;;7.65;61.38
56400;BME280;42298;53.638;9.876;2023-04-19T03:09:30;102930.09;;;7.63;61.49
56400;BME280;42298;53.638;9.876;2023-04-19T03:11:56;102908.59;;;7.48;61.48
56400;BME280;42298;53.638;9.876;2023-04-19T03:14:25;102937.59;;;7.67;61.39
56400;BME280;42298;53.638;9.876;2023-04-19T03:16:50;102919.59;;;7.60;61.46
56400;BME280;42298;53.638;9.876;2023-04-19T03:19:16;102913.00;;;7.49;61.29
56400;BME280;42298;53.638;9.876;2023-04-19T03:21:41;102904.88;;;7.43;61.12
56400;BME280;42298;53.638;9.876;2023-04-19T03:24:07;102922.81;;;7.57;61.61
56400;BME280;42298;53.638;9.876;2023-04-19T03:26:32;102926.81;;;7.54;61.24
56400;BME280;42298;53.638;9.876;2023-04-19T03:28:57;102892.97;;;7.37;61.27
56400;BME280;42298;53.638;9.876;2023-04-19T03:31:23;102922.81;;;7.57;61.20
56400;BME280;42298;53.638;9.876;2023-04-19T03:33:57;102914.06;;;7.48;61.34
56400;BME280;42298;53.638;9.876;2023-04-19T03:36:22;102901.78;;;7.39;61.58
56400;BME280;42298;53.638;9.876;2023-04-19T03:38:47;102904.28;;;7.41;60.95
56400;BME280;42298;53.638;9.876;2023-04-19T03:41:23;102926.13;;;7.47;60.21
56400;BME280;42298;53.638;9.876;2023-04-19T03:43:49;102928.84;;;7.36;60.11
56400;BME280;42298;53.638;9.876;2023-04-19T03:46:14;102900.19;;;7.09;60.59
56400;BME280;42298;53.638;9.876;2023-04-19T03:48:40;102894.31;;;7.05;60.43
56400;BME280;42298;53.638;9.876;2023-04-19T03:51:05;102929.84;;;7.12;60.67
56400;BME280;42298;53.638;9.876;2023-04-19T03:53:31;102917.09;;;7.06;60.89
56400;BME280;42298;53.638;9.876;2023-04-19T03:55:56;102904.09;;;7.01;61.10
56400;BME280;42298;53.638;9.876;2023-04-19T03:58:22;102899.63;;;6.89;60.60
56400;BME280;42298;53.638;9.876;2023-04-19T04:00:47;102914.09;;;6.96;61.42
56400;BME280;42298;53.638;9.876;2023-04-19T04:03:13;102916.81;;;6.96;61.58
56400;BME280;42298;53.638;9.876;2023-04-19T04:05:38;102916.34;;;6.99;61.04
56400;BME280;42298;53.638;9.876;2023-04-19T04:08:04;102903.44;;;6.88;61.46
56400;BME280;42298;53.638;9.876;2023-04-19T04:10:29;102911.19;;;6.91;61.82
56400;BME280;42298;53.638;9.876;2023-04-19T04:12:54;102904.06;;;6.90;61.61
56400;BME280;42298;53.638;9.876;2023-04-19T04:15:20;102908.00;;;6.94;61.21
56400;BME280;42298;53.638;9.876;2023-04-19T04:17:45;102894.38;;;6.87;62.02
56400;BME280;42298;53.638;9.876;2023-04-19T04:20:11;102910.75;;;7.05;61.39
56400;BME280;42298;53.638;9.876;2023-04-19T04:22:44;102912.81;;;7.10;60.97
56400;BME280;42298;53.638;9.876;2023-04-19T04:25:13;102896.72;;;7.02;60.99
56400;BME280;42298;53.638;9.876;2023-04-19T04:27:40;102910.19;;;7.03;61.04
56400;BME280;42298;53.638;9.876;2023-04-19T04:30:07;102906.59;;;7.03;60.70
56400;BME280;42298;53.638;9.876;2023-04-19T04:32:33;102907.94;;;7.12;60.82
56400;BME280;42298;53.638;9.876;2023-04-19T04:35:03;102913.41;;;7.12;61.19
56400;BME280;42298;53.638;9.876;2023-04-19T04:37:30;102891.97;;;7.09;nan
56400;BME280;42298;53.638;9.876;2023-04-19T04:39:58;102907.97;;;7.35;61.23
56400;BME280;42298;53.638;9.876;2023-04-19T04:42:23;102899.78;;;7.58;60.81
56400;BME280;42298;53.638;9.876;2023-04-19T04:44:49;102908.16;;;7.98;60.89
56400;BME280;42298;53.638;9.876;2023-04-19T04:47:15;102890.41;;;8.40;59.65
56400;BME280;42298;53.638;9.876;2023-04-19T04:49:41;102915.69;;;9.09;58.40
56400;BME280;42298;53.638;9.876;2023-04-19T04:52:06;102912.06;;;9.70;57.59
56400;BME280;42298;53.638;9.876;2023-04-19T04:54:32;102911.06;;;10.31;55.80
56400;BME280;42298;53.638;9.876;2023-04-19T04:56:58;102916.56;;;11.00;55.20
56400;BME280;42298;53.638;9.876;2023-04-19T04:59:23;102906.94;;;11.61;53.55
56400;BME280;42298;53.638;9.876;2023-04-19T05:01:48;102893.41;;;11.96;51.89
56400;BME280;42298;53.638;9.876;2023-04-19T05:04:14;102883.16;;;12.48;50.93
56400;BME280;42298;53.638;9.876;2023-04-19T05:06:39;102912.06;;;12.87;49.75
56400;BME280;42298;53.638;9.876;2023-04-19T05:09:05;102904.34;;;12.94;48.29
56400;BME280;42298;53.638;9.876;2023-04-19T05:11:31;102919.38;;;13.28;48.00
56400;BME280;42298;53.638;9.876;2023-04-19T05:13:57;102915.78;;;13.58;46.72
56400;BME280;42298;53.638;9.876;2023-04-19T05:16:22;102907.19;;;13.90;45.54
56400;BME280;42298;53.638;9.876;2023-04-19T05:18:48;102863.41;;;13.82;45.13
56400;BME280;42298;53.638;9.876;2023-04-19T05:21:13;102891.31;;;14.20;44.40
56400;BME280;42298;53.638;9.876;2023-04-19T05:23:38;102902.72;;;14.82;44.32
56400;BME280;42298;53.638;9.876;2023-04-19T05:26:04;102906.78;;;15.00;43.68
56400;BME280;42298;53.638;9.876;2023-04-19T05:28:29;102887.22;;;15.20;42.57
56400;BME280;42298;53.638;9.876;2023-04-19T05:30:55;102898.22;;;15.40;42.37
56400;BME280;42298;53.638;9.876;2023-04-19T05:33:20;102878.41;;;15.47;42.40
56400;BME280;42298;53.638;9.876;2023-04-19T05:35:45;102901.09;;;15.87;40.97
56400;BME280;42298;53.638;9.876;2023-04-19T05:38:11;102868.13;;;16.04;40.82
56400;BME280;42298;53.638;9.876;2023-04-19T05:40:36;102888.19;;;16.25;40.49
56400;BME280;42298;53.638;9.876;2023-04-19T05:43:01;102875.41;;;16.24;40.00
56400;BME280;42298;53.638;9.876;2023-04-19T05:45:26;102862.59;;;16.04;39.67
56400;BME280;42298;53.638;9.876;2023-04-19T05:47:52;102869.31;;;16.45;39.58
56400;BME280;42298;53.638;9.876;2023-04-19T05:50:17;102853.47;;;16.22;39.52
56400;BME280;42298;53.638;9.876;2023-04-19T05:52:44;102894.97;;;16.84;39.21
56400;BME280;42298;53.638;9.876;2023-04-19T05:55:10;102870.47;;;16.63;38.77
56400;BME280;42298;53.638;9.876;2023-04-19T05:57:35;102879.06;;;16.43;38.36
56400;BME280;42298;53.638;9.876;2023-04-19T06:00:01;102876.19;;;16.29;39.20
56400;BME280;42298;53.638;9.876;2023-04-19T06:02:26;102876.91;;;16.16;38.49
56400;BME280;42298;53.638;9.876;2023-04-19T06:04:51;102877.09;;;15.96;39.54
56400;BME280;42298;53.638;9.876;2023-04-19T06:07:17;102872.41;;;16.20;39.18
56400;BME280;42298;53.638;9.876;2023-04-19T06:09:42;102864.59;;;16.46;38.78
56400;BME280;42298;53.638;9.876;2023-04-19T06:12:08;102897.91;;;16.51;38.76
56400;BME280;42298;53.638;9.876;2023-04-19T06:14:33;102869.31;;;16.45;39.32
56400;BME280;42298;53.638;9.876;2023-04-19T06:16:59;102867.69;;;16.44;38.38
56400;BME280;42298;53.638;9.876;2023-04-19T06:19:24;102844.94;;;16.14;38.84
56400;BME280;42298;53.638;9.876;2023-04-19T06:21:52;102889.84;;;16.26;39.02
56400;BME280;42298;53.638;9.876;2023-04-19T06:24:17;102835.13;;;15.74;38.12
56400;BME280;42298;53.638;9.876;2023-04-19T06:26:46;102839.25;;;15.77;38.57
56400;BME280;42298;53.638;9.876;2023-04-19T06:29:13;102880.53;;;15.88;39.13
56400;BME280;42298;53.638;9.876;2023-04-19T06:31:39;102856.16;;;15.80;38.92
56400;BME280;42298;53.638;9.876;2023-04-19T06:34:05;102837.69;;;15.66;38.52
56400;BME280;42298;53.638;9.876;2023-04-19T06:36:32;102888.63;;;16.13;38.38
56400;BME280;42298;53.638;9.876;2023-04-19T06:39:03;102828.78;;;15.40;38.21
56400;BME280;42298;53.638;9.876;2023-04-19T06:41:31;102828.19;;;15.43;38.54
56400;BME280;42298;53.638;9.876;2023-04-19T06:43:59;102842.03;;;15.48;38.03
56400;BME280;42298;53.638;9.876;2023-04-19T06:46:25;102828.81;;;15.30;39.34
56400;BME280;42298;53.638;9.876;2023-04-19T06:48:51;102832.13;;;15.66;38.90
56400;BME280;42298;53.638;9.876;2023-04-19T06:51:17;102838.25;;;15.91;38.42
56400;BME280;42298;53.638;9.876;2023-04-19T06:53:42;102827.66;;;16.17;38.21
56400;BME280;42298;53.638;9.876;2023-04-19T06:56:08;102824.53;;;16.47;37.91
56400;BME280;42298;53.638;9.876;2023-04-19T06:58:39;102828.91;;;16.71;37.29
56400;BME280;42298;53.638;9.876;2023-04-19T07:01:04;102822.47;;;16.10;37.08
56400;BME280;42298;53.638;9.876;2023-04-19T07:03:30;102827.06;;;16.20;37.05
56400;BME280;42298;53.638;9.876;2023-04-19T07:05:56;102857.19;;;16.13;36.71
56400;BME280;42298;53.638;9.876;2023-04-19T07:08:23;102814.06;;;15.68;37.41
56400;BME280;42298;53.638;9.876;2023-04-19T07:10:50;102839.06;;;15.68;37.55
56400;BME280;42298;53.638;9.876;2023-04-19T07:13:17;102833.16;;;15.75;37.53
56400;BME280;42298;53.638;9.876;2023-04-19T07:15:48;102846.00;;;15.66;37.36
56400;BME280;42298;53.638;9.876;2023-04-19T07:18:15;102850.91;;;15.79;37.79
56400;BME280;42298;53.638;9.876;2023-04-19T07:20:40;102802.09;;;15.68;37.24
56400;BME280;42298;53.638;9.876;2023-04-19T07:23:09;102847.59;;;16.00;37.40
56400;BME280;42298;53.638;9.876;2023-04-19T07:25:36;102840.31;;;15.81;36.71
56400;BME280;42298;53.638;9.876;2023-04-19T07:28:02;102825.59;;;15.80;37.25
56400;BME280;42298;53.638;9.876;2023-04-19T07:30:28;102819.91;;;16.14;37.30
56400;BME280;42298;53.638;9.876;2023-04-19T07:32:54;102826.13;;;15.82;37.10
56400;BME280;42298;53.638;9.876;2023-04-19T07:35:19;102813.59;;;16.08;36.48
56400;BME280;42298;53.638;9.876;2023-04-19T07:37:45;102795.09;;;16.22;36.34
56400;BME280;42298;53.638;9.876;2023-04-19T07:40:11;102818.56;;;16.11;35.70
56400;BME280;42298;53.638;9.876;2023-04-19T07:42:37;102789.66;;;15.89;35.43
56400;BME280;42298;53.638;9.876;2023-04-19T07:45:03;102807.34;;;15.98;36.24
56400;BME280;42298;53.638;9.876;2023-04-19T07:47:29;102797.72;;;15.62;35.18
56400;BME280;42298;53.638;9.876;2023-04-19T07:49:55;102829.44;;;15.84;35.94
56400;BME280;42298;53.638;9.876;2023-04-19T07:52:22;102803.66;;;15.79;35.87
56400;BME280;42298;53.638;9.876;2023-04-19T07:54:47;102824.69;;;16.32;35.58
56400;BME280;42298;53.638;9.876;2023-04-19T07:57:14;102791.56;;;16.35;35.21
56400;BME280;42298;53.638;9.876;2023-04-19T07:59:40;102793.00;;;16.09;34.99
56400;BME280;42298;53.638;9.876;2023-04-19T08:02:05;102816.72;;;16.25;34.57
56400;BME280;42298;53.638;9.876;2023-04-19T08:04:31;102817.84;;;16.24;34.51
56400;BME280;42298;53.638;9.876;2023-04-19T08:06:57;102821.00;;;16.36;34.84
56400;BME280;42298;53.638;9.876;2023-04-19T08:09:23;102788.59;;;15.85;34.18
56400;BME280;42298;53.638;9.876;2023-04-19T08:11:49;102797.38;;;16.15;35.03
56400;BME280;42298;53.638;9.876;2023-04-19T08:14:17;102812.50;;;16.51;34.05
56400;BME280;42298;53.638;9.876;2023-04-19T08:16:44;102820.03;;;16.27;34.63
56400;BME280;42298;53.638;9.876;2023-04-19T08:19:10;102790.22;;;16.09;34.70
56400;BME280;42298;53.638;9.876;2023-04-19T08:21:38;102787.94;;;16.35;34.18
56400;BME280;42298;53.638;9.876;2023-04-19T08:24:06;102776.00;;;16.34;34.42
56400;BME280;42298;53.638;9.876;2023-04-19T08:26:32;102824.16;;;16.53;33.77
56400;BME280;42298;53.638;9.876;2023-04-19T08:28:57;102800.03;;;16.25;34.43
56400;BME280;42298;53.638;9.876;2023-04-19T08:31:22;102775.16;;;16.34;34.14
56400;BME280;42298;53.638;9.876;2023-04-19T08:33:50;102788.13;;;16.43;34.53
56400;BME280;42298;53.638;9.876;2023-04-19T08:36:19;102775.97;;;16.16;33.69
56400;BME280;42298;53.638;9.876;2023-04-19T08:38:46;102774.97;;;16.67;34.18
56400;BME280;42298;53.638;9.876;2023-04-19T08:41:13;102779.13;;;16.70;33.37
56400;BME280;42298;53.638;9.876;2023-04-19T08:43:44;102780.38;;;16.96;33.44
56400;BME280;42298;53.638;9.876;2023-04-19T08:46:12;102755.88;;;17.11;33.49
56400;BME280;42298;53.638;9.876;2023-04-19T08:48:39;102760.56;;;16.97;34.13
56400;BME280;42298;53.638;9.876;2023-04-19T08:51:05;102760.31;;;16.80;32.65
56400;BME280;42298;53.638;9.876;2023-04-19T08:53:34;102754.00;;;17.07;32.69
56400;BME280;42298;53.638;9.876;2023-04-19T08:56:00;102757.19;;;17.33;33.10
56400;BME280;42298;53.638;9.876;2023-04-19T08:58:29;102747.97;;;16.68;33.93
56400;BME280;42298;53.638;9.876;2023-04-19T09:00:58;102747.75;;;16.83;33.48
56400;BME280;42298;53.638;9.876;2023-04-19T09:03:24;102768.63;;;16.99;33.87
56400;BME280;42298;53.638;9.876;2023-04-19T09:05:50;102738.34;;;16.79;33.52
56400;BME280;42298;53.638;9.876;2023-04-19T09:11:05;102740.84;;;17.26;31.70
56400;BME280;42298;53.638;9.876;2023-04-19T09:13:31;102732.06;;;17.65;31.83
56400;BME280;42298;53.638;9.876;2023-04-19T09:15:59;102741.03;;;18.02;31.15
56400;BME280;42298;53.638;9.876;2023-04-19T09:18:25;102747.25;;;17.86;31.30
56400;BME280;42298;53.638;9.876;2023-04-19T09:20:51;102727.41;;;17.60;32.06
56400;BME280;42298;53.638;9.876;2023-04-19T09:23:24;102725.31;;;17.39;32.50
56400;BME280;42298;53.638;9.876;2023-04-19T09:25:55;102738.06;;;17.99;32.74
56400;BME280;42298;53.638;9.876;2023-04-19T09:28:22;102718.34;;;17.55;31.45
56400;BME280;42298;53.638;9.876;2023-04-19T09:30:51;102753.41;;;17.10;31.69
56400;BME280;42298;53.638;9.876;2023-04-19T09:33:33;102744.81;;;16.37;32.35
56400;BME280;42298;53.638;9.876;2023-04-19T09:36:00;102728.41;;;16.17;32.62
56400;BME280;42298;53.638;9.876;2023-04-19T09:38:26;102724.69;;;16.45;33.46
56400;BME280;42298;53.638;9.876;2023-04-19T09:41:04;102727.91;;;16.52;32.76
56400;BME280;42298;53.638;9.876;2023-04-19T09:43:30;102754.38;;;16.50;31.88
56400;BME280;42298;53.638;9.876;2023-04-19T09:45:55;102733.66;;;16.19;32.33
56400;BME280;42298;53.638;9.876;2023-04-19T09:48:22;102740.78;;;16.48;31.92
56400;BME280;42298;53.638;9.876;2023-04-19T09:50:58;102732.03;;;16.73;31.73
56400;BME280;42298;53.638;9.876;2023-04-19T09:53:24;102720.75;;;16.83;31.25
56400;BME280;42298;53.638;9.876;2023-04-19T09:55:52;102679.41;;;16.90;31.01
56400;BME280;42298;53.638;9.876;2023-04-19T09:58:19;102674.25;;;17.30;31.09
56400;BME280;42298;53.638;9.876;2023-04-19T10:00:46;102704.00;;;17.48;28.48
56400;BME280;42298;53.638;9.876;2023-04-19T10:03:16;102695.94;;;17.46;28.14
56400;BME280;42298;53.638;9.876;2023-04-19T10:05:43;102666.13;;;16.87;28.12
56400;BME280;42298;53.638;9.876;2023-04-19T10:08:10;102686.34;;;17.06;28.65
56400;BME280;42298;53.638;9.876;2023-04-19T10:10:35;102689.06;;;17.11;27.64
56400;BME280;42298;53.638;9.876;2023-04-19T10:13:03;102661.13;;;17.17;28.43
56400;BME280;42298;53.638;9.876;2023-04-19T10:15:30;102670.56;;;17.61;28.00
56400;BME280;42298;53.638;9.876;2023-04-19T10:17:56;102672.91;;;17.41;27.65
56400;BME280;42298;53.638;9.876;2023-04-19T10:23:08;102661.16;;;16.84;26.68
56400;BME280;42298;53.638;9.876;2023-04-19T10:25:37;102691.44;;;17.04;26.95
56400;BME280;42298;53.638;9.876;2023-04-19T10:28:05;102672.25;;;17.03;26.59
56400;BME280;42298;53.638;9.876;2023-04-19T10:30:31;102652.19;;;16.87;27.42
56400;BME280;42298;53.638;9.876;2023-04-19T10:32:58;102681.56;;;17.26;27.32
56400;BME280;42298;53.638;9.876;2023-04-19T10:35:28;102681.97;;;16.87;25.54
56400;BME280;42298;53.638;9.876;2023-04-19T10:38:10;102664.19;;;16.69;24.67
56400;BME280;42298;53.638;9.876;2023-04-19T10:40:59;102658.63;;;16.69;25.17
56400;BME280;42298;53.638;9.876;2023-04-19T10:43:33;102628.09;;;16.64;25.21
56400;BME280;42298;53.638;9.876;2023-04-19T10:46:12;102676.38;;;16.73;25.81
56400;BME280;42298;53.638;9.876;2023-04-19T10:48:40;102658.66;;;16.51;25.46
56400;BME280;42298;53.638;9.876;2023-04-19T10:51:21;102666.34;;;16.40;25.15
56400;BME280;42298;53.638;9.876;2023-04-19T10:59:18;102633.22;;;16.07;24.43
56400;BME280;42298;53.638;9.876;2023-04-19T11:07:19;102655.19;;;16.59;24.13
56400;BME280;42298;53.638;9.876;2023-04-19T11:09:49;102650.56;;;16.36;23.95
56400;BME280;42298;53.638;9.876;2023-04-19T11:12:18;102614.94;;;16.01;23.30
56400;BME280;42298;53.638;9.876;2023-04-19T11:15:02;102638.47;;;16.08;23.06
56400;BME280;42298;53.638;9.876;2023-04-19T11:17:31;102623.38;;;16.14;23.50
56400;BME280;42298;53.638;9.876;2023-04-19T11:20:04;102601.72;;;16.11;23.21
56400;BME280;42298;53.638;9.876;2023-04-19T11:22:39;102638.94;;;15.97;22.79
56400;BME280;42298;53.638;9.876;2023-04-19T11:25:05;102661.00;;;16.07;23.04
56400;BME280;42298;53.638;9.876;2023-04-19T11:27:32;102605.03;;;15.76;23.16
56400;BME280;42298;53.638;9.876;2023-04-19T11:30:04;102627.78;;;15.78;22.73
56400;BME280;42298;53.638;9.876;2023-04-19T11:32:32;102618.09;;;15.94;23.74
56400;BME280;42298;53.638;9.876;2023-04-19T11:35:03;102604.28;;;15.71;22.98
56400;BME280;42298;53.638;9.876;2023-04-19T11:37:33;102616.22;;;15.71;22.50
56400;BME280;42298;53.638;9.876;2023-04-19T11:40:06;102615.88;;;15.54;22.39
56400;BME280;42298;53.638;9.876;2023-04-19T11:42:32;102626.59;;;15.84;23.16
56400;BME280;42298;53.638;9.876;2023-04-19T11:45:01;102604.41;;;15.79;24.09
56400;BME280;42298;53.638;9.876;2023-04-19T11:47:26;102615.25;;;15.99;23.72
56400;BME280;42298;53.638;9.876;2023-04-19T11:49:54;102613.88;;;16.15;22.42
56400;BME280;42298;53.638;9.876;2023-04-19T11:52:24;102590.59;;;15.93;23.33
56400;BME280;42298;53.638;9.876;2023-04-19T11:54:51;102584.47;;;15.77;22.76
56400;BME280;42298;53.638;9.876;2023-04-19T11:57:29;102578.44;;;15.89;23.74
56400;BME280;42298;53.638;9.876;2023-04-19T12:00:06;102592.66;;;16.06;22.82
56400;BME280;42298;53.638;9.876;2023-04-19T12:02:40;102586.41;;;15.77;23.57
56400;BME280;42298;53.638;9.876;2023-04-19T12:05:09;102584.00;;;15.70;23.41
56400;BME280;42298;53.638;9.876;2023-04-19T12:07:35;102574.63;;;15.66;22.38
56400;BME280;42298;53.638;9.876;2023-04-19T12:10:09;102591.63;;;15.60;22.15
56400;BME280;42298;53.638;9.876;2023-04-19T12:12:36;102596.53;;;15.68;23.34
56400;BME280;42298;53.638;9.876;2023-04-19T12:15:03;102645.38;;;15.50;24.03
56400;BME280;42298;53.638;9.876;2023-04-19T12:17:29;102626.00;;;15.45;24.95
56400;BME280;42298;53.638;9.876;2023-04-19T12:19:54;102586.47;;;15.53;24.11
56400;BME280;42298;53.638;9.876;2023-04-19T12:22:20;102569.56;;;15.50;23.85
56400;BME280;42298;53.638;9.876;2023-04-19T12:24:52;102582.41;;;15.46;24.31
56400;BME280;42298;53.638;9.876;2023-04-19T12:27:20;102603.66;;;15.55;24.10
56400;BME280;42298;53.638;9.876;2023-04-19T12:29:45;102594.13;;;15.61;24.17
56400;BME280;42298;53.638;9.876;2023-04-19T12:32:11;102592.56;;;15.74;23.02
56400;BME280;42298;53.638;9.876;2023-04-19T12:34:37;102565.59;;;15.56;23.53
56400;BME280;42298;53.638;9.876;2023-04-19T12:37:02;102619.91;;;15.67;23.87
56400;BME280;42298;53.638;9.876;2023-04-19T12:39:31;102601.41;;;15.57;23.89
56400;BME280;42298;53.638;9.876;2023-04-19T12:41:57;102586.97;;;15.55;24.48
56400;BME280;42298;53.638;9.876;2023-04-19T12:44:23;102589.75;;;15.31;23.06
56400;BME280;42298;53.638;9.876;2023-04-19T12:46:48;102600.25;;;15.16;23.32
56400;BME280;42298;53.638;9.876;2023-04-19T12:49:17;102600.41;;;15.48;24.09
56400;BME280;42298;53.638;9.876;2023-04-19T12:51:42;102556.03;;;15.43;23.92
56400;BME280;42298;53.638;9.876;2023-04-19T12:54:08;102555.63;;;15.31;23.23
56400;BME280;42298;53.638;9.876;2023-04-19T12:56:33;102550.75;;;15.23;23.99
56400;BME280;42298;53.638;9.876;2023-04-19T12:58:59;102599.28;;;15.49;24.35
56400;BME280;42298;53.638;9.876;2023-04-19T13:01:24;102574.97;;;15.17;22.62
56400;BME280;42298;53.638;9.876;2023-04-19T13:03:51;102588.94;;;15.07;23.38
56400;BME280;42298;53.638;9.876;2023-04-19T13:06:16;102604.84;;;15.02;23.74
56400;BME280;42298;53.638;9.876;2023-04-19T13:08:41;102608.50;;;14.97;24.01
56400;BME280;42298;53.638;9.876;2023-04-19T13:11:07;102576.06;;;14.93;23.26